Terminal Aerodrome Forecast
Issued by NWS Lake Charles, LA

Home | Current Version | Previous Version | Text Only | Print | Product List | Glossary On
Versions: 1 2 3 4 5 6 7 8 9 10 11 12 13
000
FTUS44 KLCH 261138
TAFAEX
TAF
KAEX 261138Z 2612/2712 VRB03KT 5SM BR SCT250
     FM261400 36005KT P6SM SCT030
     FM261900 02008KT P6SM VCTS FEW025CB BKN040
     FM270000 36008KT P6SM SCT050 BKN250=

USA.gov is the U.S. government's official web portal to all federal, state and local government web resources and services.